Time;durP1;ratioP1;P1;durP2;ratioP2;P2;SDS_P1;SDS_P2;PMS_P1;PMS_P2;Temp;Humidity;BMP_temperature;BMP_pressure;BME280_temperature;BME280_humidity;BME280_pressure;Samples;Min_cycle;Max_cycle;Signal;HPM_P1;HPM_P2
2021/01/09 00:01:40;;;;;;;59.57;32.87;;;1.80;99.90;;;;;;5076020;28;20212;-78
2021/01/09 00:04:06;;;;;;;55.87;32.97;;;1.90;99.90;;;;;;5077674;28;21073;-77
2021/01/09 00:06:38;;;;;;;60.93;32.87;;;1.90;99.90;;;;;;5076116;28;20760;-78
2021/01/09 00:09:05;;;;;;;61.87;34.67;;;1.90;99.90;;;;;;5077975;28;20205;-79
2021/01/09 00:11:32;;;;;;;62.10;34.17;;;1.90;99.90;;;;;;5076603;28;20317;-78
2021/01/09 00:14:02;;;;;;;57.63;32.23;;;1.90;99.90;;;;;;5076443;28;20201;-78
2021/01/09 00:16:29;;;;;;;56.20;32.30;;;1.90;99.90;;;;;;5080769;28;20715;-79
2021/01/09 00:18:55;;;;;;;60.10;32.00;;;1.90;99.90;;;;;;5082792;28;20661;-78
2021/01/09 00:21:21;;;;;;;58.70;33.47;;;1.90;99.90;;;;;;5084105;28;20209;-80
2021/01/09 00:23:48;;;;;;;57.00;32.80;;;1.90;99.90;;;;;;5079445;28;20229;-78
2021/01/09 00:26:16;;;;;;;62.07;35.23;;;1.90;99.90;;;;;;5080997;28;20720;-79
2021/01/09 00:28:45;;;;;;;61.03;34.03;;;1.90;99.90;;;;;;5079750;28;20213;-78
2021/01/09 00:31:16;;;;;;;60.07;33.23;;;1.90;99.90;;;;;;5089558;28;20256;-79
2021/01/09 00:33:42;;;;;;;59.20;32.50;;;1.90;99.90;;;;;;5100258;28;20201;-79
2021/01/09 00:36:11;;;;;;;61.70;35.57;;;1.90;99.90;;;;;;5095464;28;20266;-78
2021/01/09 00:38:37;;;;;;;62.53;34.37;;;1.80;99.90;;;;;;5093153;28;20256;-79
2021/01/09 00:41:04;;;;;;;61.67;33.47;;;1.80;99.90;;;;;;5090375;28;20300;-80
2021/01/09 00:43:30;;;;;;;60.90;32.90;;;1.80;99.90;;;;;;5089289;28;20205;-79
2021/01/09 00:45:59;;;;;;;58.67;33.80;;;1.80;99.90;;;;;;5089311;28;20232;-80
2021/01/09 00:48:26;;;;;;;65.40;34.30;;;1.80;99.90;;;;;;5093637;28;20201;-78
2021/01/09 00:50:54;;;;;;;62.47;34.33;;;1.80;99.90;;;;;;5088460;28;20251;-78
2021/01/09 00:53:20;;;;;;;66.40;35.13;;;1.80;99.90;;;;;;5088139;28;20214;-79
2021/01/09 00:55:48;;;;;;;63.23;35.50;;;1.80;99.90;;;;;;5084150;28;20472;-80
2021/01/09 00:58:15;;;;;;;67.10;34.50;;;1.80;99.90;;;;;;5078511;28;20198;-80
2021/01/09 01:00:41;;;;;;;63.73;34.37;;;1.80;99.90;;;;;;5083159;28;20240;-80
2021/01/09 01:03:07;;;;;;;61.53;33.93;;;1.80;99.90;;;;;;5082028;28;20232;-78
2021/01/09 01:05:35;;;;;;;62.07;34.10;;;1.80;99.90;;;;;;5076885;28;20221;-78
2021/01/09 01:08:01;;;;;;;64.70;34.17;;;1.80;99.90;;;;;;5073411;28;20229;-78
2021/01/09 01:10:28;;;;;;;64.33;33.93;;;1.70;99.90;;;;;;5078226;28;20213;-78
2021/01/09 01:12:55;;;;;;;67.10;35.37;;;1.70;99.90;;;;;;5078150;28;20221;-77
2021/01/09 01:15:22;;;;;;;62.63;34.57;;;1.70;99.90;;;;;;5075202;28;20323;-77
2021/01/09 01:17:48;;;;;;;67.97;36.80;;;1.70;99.90;;;;;;5074702;28;20224;-77
2021/01/09 01:20:15;;;;;;;62.77;34.57;;;1.70;99.90;;;;;;5073464;28;20198;-78
2021/01/09 01:22:45;;;;;;;54.47;32.07;;;1.70;99.90;;;;;;5072805;28;20756;-77
2021/01/09 01:25:13;;;;;;;69.20;34.63;;;1.70;99.90;;;;;;5072985;28;20229;-78
2021/01/09 01:27:40;;;;;;;63.10;34.87;;;1.70;99.90;;;;;;5075497;28;20201;-77
2021/01/09 01:30:07;;;;;;;71.70;35.87;;;1.70;99.90;;;;;;5075250;28;20288;-77
2021/01/09 01:32:34;;;;;;;62.50;35.33;;;1.60;99.90;;;;;;5074797;28;20217;-77
2021/01/09 01:35:01;;;;;;;64.73;35.63;;;1.60;99.90;;;;;;5075993;28;20269;-78
2021/01/09 01:37:28;;;;;;;70.53;36.27;;;1.60;99.90;;;;;;5076682;28;20205;-77
2021/01/09 01:39:55;;;;;;;64.80;36.07;;;1.60;99.90;;;;;;5072433;28;20251;-78
2021/01/09 01:42:21;;;;;;;67.93;36.03;;;1.60;99.90;;;;;;5073683;28;20213;-78
2021/01/09 01:44:48;;;;;;;73.63;38.77;;;1.60;99.90;;;;;;5064448;28;20348;-77
2021/01/09 01:47:17;;;;;;;73.20;38.77;;;1.60;99.90;;;;;;5069288;28;20537;-78
2021/01/09 01:49:44;;;;;;;69.93;38.23;;;1.70;99.90;;;;;;5075242;28;20209;-77
2021/01/09 01:52:13;;;;;;;69.93;39.37;;;1.70;99.90;;;;;;5074904;28;20228;-79
2021/01/09 01:54:39;;;;;;;73.27;38.97;;;1.70;99.90;;;;;;5074236;28;20216;-77
2021/01/09 01:57:09;;;;;;;78.63;38.80;;;1.60;99.90;;;;;;5074807;28;20209;-77
2021/01/09 01:59:36;;;;;;;77.53;39.63;;;1.60;99.90;;;;;;5071656;28;20205;-77
2021/01/09 02:02:05;;;;;;;80.70;39.20;;;1.60;99.90;;;;;;5081869;28;20745;-77
2021/01/09 02:04:32;;;;;;;73.70;38.17;;;1.60;99.90;;;;;;5084332;28;20201;-77
2021/01/09 02:07:01;;;;;;;73.00;39.17;;;1.60;99.90;;;;;;5086881;28;20231;-78
2021/01/09 02:09:34;;;;;;;75.20;37.90;;;1.60;99.90;;;;;;5078888;28;20224;-78
2021/01/09 02:12:06;;;;;;;73.07;38.30;;;1.70;99.90;;;;;;5077871;28;20237;-78
2021/01/09 02:14:39;;;;;;;72.43;38.73;;;1.70;99.90;;;;;;5075882;28;20321;-79
2021/01/09 02:17:07;;;;;;;75.50;38.80;;;1.70;99.90;;;;;;5080111;28;20269;-78
2021/01/09 02:19:37;;;;;;;69.97;37.77;;;1.70;99.90;;;;;;5070864;28;20216;-77
2021/01/09 02:22:05;;;;;;;76.40;38.50;;;1.70;99.90;;;;;;5075229;28;20240;-79
2021/01/09 02:24:32;;;;;;;68.93;36.67;;;1.70;99.90;;;;;;5076786;28;20638;-79
2021/01/09 02:26:59;;;;;;;84.77;40.43;;;1.70;99.90;;;;;;5072678;28;20201;-79
2021/01/09 02:29:29;;;;;;;73.30;37.60;;;1.70;99.90;;;;;;5077376;28;20569;-80
2021/01/09 02:32:00;;;;;;;64.60;35.83;;;1.70;99.90;;;;;;5076146;28;20200;-79
2021/01/09 02:34:33;;;;;;;69.50;36.07;;;1.70;99.90;;;;;;5072918;28;20282;-80
2021/01/09 02:37:00;;;;;;;72.87;37.83;;;1.70;99.90;;;;;;5077165;28;20221;-78
2021/01/09 02:39:29;;;;;;;68.40;38.43;;;1.70;99.90;;;;;;5075496;28;20213;-78
2021/01/09 02:41:57;;;;;;;70.43;36.97;;;1.70;99.90;;;;;;5073964;28;20205;-77
2021/01/09 02:44:24;;;;;;;65.63;35.67;;;1.60;99.90;;;;;;5077876;28;20216;-78
2021/01/09 02:46:50;;;;;;;70.17;36.20;;;1.70;99.90;;;;;;5074485;28;20300;-78
2021/01/09 02:49:17;;;;;;;66.33;37.50;;;1.60;99.90;;;;;;5074803;28;20602;-79
2021/01/09 02:51:43;;;;;;;69.43;35.70;;;1.60;99.90;;;;;;5071852;28;20670;-79
2021/01/09 02:54:10;;;;;;;75.27;38.13;;;1.60;99.90;;;;;;5073378;28;20201;-77
2021/01/09 02:56:36;;;;;;;68.03;36.73;;;1.60;99.90;;;;;;5073183;28;20193;-77
2021/01/09 02:59:03;;;;;;;73.37;38.20;;;1.80;99.90;;;;;;5072177;28;20213;-79
2021/01/09 03:01:31;;;;;;;65.47;38.13;;;1.70;99.90;;;;;;5074473;28;20543;-79
2021/01/09 03:03:58;;;;;;;75.50;38.17;;;1.70;99.90;;;;;;5080863;28;20352;-79
2021/01/09 03:06:25;;;;;;;69.73;36.03;;;1.70;99.90;;;;;;5075735;28;20623;-78
2021/01/09 03:08:52;;;;;;;64.87;37.67;;;1.70;99.90;;;;;;5079050;28;20232;-79
2021/01/09 03:11:19;;;;;;;69.47;35.63;;;1.70;99.90;;;;;;5076001;28;20316;-78
2021/01/09 03:13:46;;;;;;;64.63;34.67;;;1.80;99.90;;;;;;5072919;28;20217;-78
2021/01/09 03:16:13;;;;;;;66.23;36.13;;;1.70;99.90;;;;;;5073029;28;20320;-78
2021/01/09 03:18:40;;;;;;;68.37;35.43;;;1.70;99.90;;;;;;5073544;28;20205;-78
2021/01/09 03:21:07;;;;;;;64.47;36.00;;;1.70;99.90;;;;;;5072799;28;20206;-78
2021/01/09 03:23:35;;;;;;;63.37;34.93;;;1.70;99.90;;;;;;5066681;28;20277;-78
2021/01/09 03:26:01;;;;;;;62.77;35.20;;;1.70;99.90;;;;;;5072588;28;20236;-78
2021/01/09 03:28:29;;;;;;;62.47;35.50;;;1.70;99.90;;;;;;5074429;28;20296;-78
2021/01/09 03:30:56;;;;;;;59.77;34.70;;;1.70;99.90;;;;;;5074382;28;20574;-78
2021/01/09 03:33:23;;;;;;;65.23;34.43;;;1.70;99.90;;;;;;5072256;28;20626;-77
2021/01/09 03:35:50;;;;;;;59.23;35.30;;;1.70;99.90;;;;;;5072433;28;20260;-80
2021/01/09 03:38:19;;;;;;;70.03;35.13;;;1.70;99.90;;;;;;5073829;28;20205;-78
2021/01/09 03:40:47;;;;;;;62.70;34.00;;;1.70;99.90;;;;;;5074820;28;20202;-78
2021/01/09 03:43:14;;;;;;;63.93;33.83;;;1.70;99.90;;;;;;5076721;28;20262;-78
2021/01/09 03:45:40;;;;;;;63.47;33.93;;;1.80;99.90;;;;;;5073708;28;20225;-78
2021/01/09 03:48:08;;;;;;;63.07;33.80;;;1.70;99.90;;;;;;5074000;28;20212;-78
2021/01/09 03:50:35;;;;;;;67.40;34.30;;;1.80;99.90;;;;;;5072174;28;20209;-78
2021/01/09 03:53:02;;;;;;;58.77;34.10;;;1.70;99.90;;;;;;5071544;28;20206;-78
2021/01/09 03:55:28;;;;;;;63.63;33.30;;;1.70;99.90;;;;;;5075171;28;20294;-79
2021/01/09 03:57:55;;;;;;;59.57;33.37;;;1.80;99.90;;;;;;5076566;28;20220;-79
2021/01/09 04:00:21;;;;;;;59.40;32.23;;;1.70;99.90;;;;;;5077558;28;20205;-78
2021/01/09 04:02:48;;;;;;;60.60;34.07;;;1.70;99.90;;;;;;5077667;28;20205;-78
2021/01/09 04:05:14;;;;;;;58.67;31.73;;;1.70;99.90;;;;;;5079230;28;20221;-78
2021/01/09 04:07:42;;;;;;;60.77;33.53;;;1.70;99.90;;;;;;5076898;28;20209;-79
2021/01/09 04:10:08;;;;;;;59.33;33.93;;;1.70;99.90;;;;;;5079495;28;20549;-79
2021/01/09 04:12:35;;;;;;;59.00;31.63;;;1.70;99.90;;;;;;5082138;28;20286;-78
2021/01/09 04:15:02;;;;;;;60.77;33.77;;;1.70;99.90;;;;;;5081197;28;20320;-79
2021/01/09 04:17:28;;;;;;;52.87;30.90;;;1.70;99.90;;;;;;5082593;28;20212;-77
2021/01/09 04:19:54;;;;;;;62.90;32.57;;;1.70;99.90;;;;;;5075682;28;20693;-77
2021/01/09 04:22:21;;;;;;;65.80;33.43;;;1.70;99.90;;;;;;5077319;28;20211;-77
2021/01/09 04:24:48;;;;;;;59.37;33.03;;;1.60;99.90;;;;;;5074299;28;20205;-77
2021/01/09 04:27:15;;;;;;;53.27;31.20;;;1.60;99.90;;;;;;5077134;28;20723;-77
2021/01/09 04:29:41;;;;;;;57.43;30.77;;;1.60;99.90;;;;;;5071383;28;20300;-77
2021/01/09 04:32:07;;;;;;;64.00;33.23;;;1.60;99.90;;;;;;5074536;28;20301;-78
2021/01/09 04:34:34;;;;;;;59.53;32.37;;;1.60;99.90;;;;;;5074193;28;20244;-78
2021/01/09 04:37:00;;;;;;;59.77;34.23;;;1.60;99.90;;;;;;5078583;28;20204;-77
2021/01/09 04:39:27;;;;;;;61.23;33.57;;;1.60;99.90;;;;;;5080275;28;20756;-80
2021/01/09 04:41:55;;;;;;;58.70;32.33;;;1.60;99.90;;;;;;5080043;28;20235;-79
2021/01/09 04:44:21;;;;;;;61.47;33.30;;;1.60;99.90;;;;;;5075336;28;20236;-79
2021/01/09 04:46:50;;;;;;;66.40;33.27;;;1.60;99.90;;;;;;5071063;28;20701;-76
2021/01/09 04:49:17;;;;;;;64.27;32.70;;;1.60;99.90;;;;;;5082791;28;20209;-79
2021/01/09 04:51:45;;;;;;;69.83;32.30;;;1.60;99.90;;;;;;5078611;28;20206;-78
2021/01/09 04:54:16;;;;;;;62.47;34.30;;;1.50;99.90;;;;;;5074875;28;20311;-79
2021/01/09 04:56:44;;;;;;;59.70;31.87;;;1.60;99.90;;;;;;5075466;28;20197;-78
2021/01/09 04:59:12;;;;;;;62.07;33.97;;;1.50;99.90;;;;;;5073860;28;20206;-78
2021/01/09 05:01:41;;;;;;;58.00;33.13;;;1.50;99.90;;;;;;5073840;28;20268;-78
2021/01/09 05:04:09;;;;;;;62.03;34.63;;;1.50;99.90;;;;;;5081667;28;20209;-80
2021/01/09 05:06:36;;;;;;;62.87;33.70;;;1.50;99.90;;;;;;5070829;28;20213;-77
2021/01/09 05:09:03;;;;;;;60.77;33.93;;;1.50;99.90;;;;;;5074932;28;20998;-78
2021/01/09 05:11:32;;;;;;;59.83;33.83;;;1.50;99.90;;;;;;5070704;28;20252;-79
2021/01/09 05:13:59;;;;;;;67.33;34.83;;;1.60;99.90;;;;;;5073162;28;20283;-78
2021/01/09 05:16:26;;;;;;;66.50;34.20;;;1.50;99.90;;;;;;5077335;28;20272;-79
2021/01/09 05:18:53;;;;;;;64.77;35.13;;;1.50;99.90;;;;;;5075853;28;20704;-78
2021/01/09 05:21:20;;;;;;;60.77;34.57;;;1.50;99.90;;;;;;5074366;28;20209;-79
2021/01/09 05:23:53;;;;;;;66.20;34.10;;;1.50;99.90;;;;;;5077829;28;20209;-78
2021/01/09 05:26:20;;;;;;;64.30;33.30;;;1.50;99.90;;;;;;5075752;28;20303;-77
2021/01/09 05:28:49;;;;;;;64.70;33.33;;;1.40;99.90;;;;;;5075260;28;20233;-78
2021/01/09 05:31:17;;;;;;;62.53;34.43;;;1.40;99.90;;;;;;5075360;28;20236;-78
2021/01/09 05:33:45;;;;;;;66.97;33.23;;;1.40;99.90;;;;;;5076241;28;20304;-78
2021/01/09 05:36:12;;;;;;;66.77;34.30;;;1.50;99.90;;;;;;5076856;28;20209;-77
2021/01/09 05:38:40;;;;;;;70.30;34.87;;;1.50;99.90;;;;;;5075983;28;20252;-77
2021/01/09 05:41:09;;;;;;;60.10;34.40;;;1.60;99.90;;;;;;5075429;28;20201;-77
2021/01/09 05:43:37;;;;;;;68.97;36.17;;;1.50;99.90;;;;;;5067996;28;20205;-79
2021/01/09 05:46:06;;;;;;;65.17;34.10;;;1.50;99.90;;;;;;5070856;28;20754;-78
2021/01/09 05:48:34;;;;;;;64.30;35.03;;;1.50;99.90;;;;;;5075597;28;20197;-79
2021/01/09 05:51:05;;;;;;;61.97;34.00;;;1.50;99.90;;;;;;5076994;28;20209;-79
2021/01/09 05:53:39;;;;;;;62.90;34.57;;;1.50;99.90;;;;;;5077710;28;20292;-78
2021/01/09 05:56:07;;;;;;;66.73;34.97;;;1.50;99.90;;;;;;5074210;28;20229;-80
2021/01/09 05:58:35;;;;;;;64.07;34.43;;;1.40;99.90;;;;;;5076897;28;20214;-81
2021/01/09 06:01:06;;;;;;;65.97;35.20;;;1.40;99.90;;;;;;5078810;28;20202;-78
2021/01/09 06:03:39;;;;;;;69.77;35.03;;;1.40;99.90;;;;;;5074333;28;20304;-80
2021/01/09 06:06:24;;;;;;;60.87;34.33;;;1.40;99.90;;;;;;5080056;28;20235;-78
2021/01/09 06:08:57;;;;;;;64.80;35.20;;;1.40;99.90;;;;;;5080369;28;20640;-79
2021/01/09 06:11:30;;;;;;;70.43;35.97;;;1.40;99.90;;;;;;5074706;28;20703;-80
2021/01/09 06:14:00;;;;;;;71.60;36.00;;;1.40;99.90;;;;;;5080165;28;20203;-80
2021/01/09 06:16:29;;;;;;;66.93;35.27;;;1.40;99.90;;;;;;5083034;28;20237;-80
2021/01/09 06:18:57;;;;;;;70.93;35.70;;;1.40;99.90;;;;;;5094035;28;20197;-78
2021/01/09 06:21:26;;;;;;;62.20;34.77;;;1.40;99.90;;;;;;5079108;28;20344;-82
2021/01/09 06:23:54;;;;;;;68.43;36.77;;;1.40;99.90;;;;;;5077672;28;20197;-79
2021/01/09 06:26:21;;;;;;;69.50;37.83;;;1.40;99.90;;;;;;5074051;28;20225;-79
2021/01/09 06:28:55;;;;;;;68.57;36.23;;;1.50;99.90;;;;;;5078472;28;20208;-79
2021/01/09 06:31:25;;;;;;;73.03;36.33;;;1.50;99.90;;;;;;5074632;28;20208;-80
2021/01/09 06:33:54;;;;;;;75.80;36.77;;;1.50;99.90;;;;;;5076469;28;20665;-78
2021/01/09 06:36:22;;;;;;;64.27;35.80;;;1.50;99.90;;;;;;5078820;28;20200;-79
2021/01/09 06:38:51;;;;;;;69.53;36.73;;;1.50;99.90;;;;;;5078609;28;20296;-78
2021/01/09 06:41:22;;;;;;;70.63;37.13;;;1.50;99.90;;;;;;5074879;28;20216;-79
2021/01/09 06:43:51;;;;;;;71.00;35.90;;;1.40;99.90;;;;;;5074251;28;20581;-75
2021/01/09 06:46:31;;;;;;;68.47;35.37;;;1.50;99.90;;;;;;5072854;28;20292;-74
2021/01/09 06:48:59;;;;;;;65.83;34.33;;;1.50;99.90;;;;;;5073139;28;20217;-75
2021/01/09 06:51:54;;;;;;;71.57;36.30;;;1.40;99.90;;;;;;5073424;28;20303;-75
2021/01/09 06:54:44;;;;;;;64.30;35.10;;;1.40;99.90;;;;;;5073619;28;20202;-75
2021/01/09 06:57:13;;;;;;;69.73;36.27;;;1.40;99.90;;;;;;5073610;28;20650;-74
2021/01/09 06:59:40;;;;;;;75.67;37.70;;;1.40;99.90;;;;;;5074062;28;20212;-75
2021/01/09 07:02:12;;;;;;;74.20;35.73;;;1.50;99.90;;;;;;5074967;28;20205;-75
2021/01/09 07:04:52;;;;;;;75.30;36.90;;;1.40;99.90;;;;;;5073942;28;20706;-74
2021/01/09 07:07:29;;;;;;;75.23;37.37;;;1.50;99.90;;;;;;5074197;28;20224;-73
2021/01/09 07:10:14;;;;;;;69.63;37.57;;;1.50;99.90;;;;;;5075481;28;20781;-75
2021/01/09 07:12:45;;;;;;;74.67;39.13;;;1.50;99.90;;;;;;5075989;28;20236;-75
2021/01/09 07:15:15;;;;;;;79.17;39.20;;;1.50;99.90;;;;;;5083878;28;20314;-75
2021/01/09 07:17:45;;;;;;;79.13;38.40;;;1.50;99.90;;;;;;5075241;28;20205;-75
2021/01/09 07:20:13;;;;;;;84.47;40.20;;;1.60;99.90;;;;;;5070913;28;20229;-75
2021/01/09 07:22:40;;;;;;;75.33;38.90;;;1.60;99.90;;;;;;5070946;28;20289;-75
2021/01/09 07:25:11;;;;;;;83.77;40.03;;;1.60;99.90;;;;;;5070564;28;20211;-74
2021/01/09 07:27:42;;;;;;;78.73;38.50;;;1.60;99.90;;;;;;5068598;28;20201;-74
2021/01/09 07:30:16;;;;;;;76.30;39.17;;;1.60;99.90;;;;;;5062889;28;20500;-74
2021/01/09 07:32:46;;;;;;;81.10;38.97;;;1.70;99.90;;;;;;5066520;28;20205;-80
2021/01/09 07:35:13;;;;;;;77.17;39.60;;;1.70;99.90;;;;;;5081588;28;20212;-79
2021/01/09 07:37:43;;;;;;;76.80;39.43;;;1.70;99.90;;;;;;5082095;28;20205;-78
2021/01/09 07:40:16;;;;;;;78.33;39.00;;;1.80;99.90;;;;;;5083901;28;20197;-80
2021/01/09 07:42:43;;;;;;;83.00;39.43;;;1.70;99.90;;;;;;5077896;28;20265;-79
2021/01/09 07:45:15;;;;;;;80.87;39.40;;;1.70;99.90;;;;;;5084886;28;20295;-79
2021/01/09 07:47:42;;;;;;;79.43;38.73;;;1.70;99.90;;;;;;5083411;28;20204;-76
2021/01/09 07:50:11;;;;;;;75.83;37.90;;;1.70;99.90;;;;;;5076692;28;20292;-74
2021/01/09 07:52:38;;;;;;;83.03;38.53;;;1.70;99.90;;;;;;5072376;28;20612;-75
2021/01/09 07:55:07;;;;;;;76.73;38.83;;;1.70;99.90;;;;;;5070494;28;20634;-74
2021/01/09 07:57:35;;;;;;;88.97;38.23;;;1.70;99.90;;;;;;5076608;28;20205;-74
2021/01/09 08:00:15;;;;;;;78.87;39.07;;;1.60;99.90;;;;;;5076780;28;20304;-73
2021/01/09 08:02:43;;;;;;;76.13;38.63;;;1.60;99.90;;;;;;5069818;28;20654;-73
2021/01/09 08:05:13;;;;;;;80.47;40.97;;;1.60;99.90;;;;;;5075101;28;20654;-74
2021/01/09 08:07:41;;;;;;;78.87;38.37;;;1.60;99.90;;;;;;5075258;28;20230;-73
2021/01/09 08:10:19;;;;;;;80.47;39.37;;;1.60;99.90;;;;;;5076375;28;20287;-73
2021/01/09 08:12:51;;;;;;;73.80;38.23;;;1.60;99.90;;;;;;5075683;28;20279;-73
2021/01/09 08:15:18;;;;;;;75.67;37.60;;;1.60;99.90;;;;;;5075335;28;20268;-72
2021/01/09 08:17:44;;;;;;;76.17;37.10;;;1.70;99.90;;;;;;5075560;28;20296;-72
2021/01/09 08:20:12;;;;;;;80.33;37.47;;;1.70;99.90;;;;;;5075294;28;20483;-70
2021/01/09 08:22:47;;;;;;;84.17;38.70;;;1.70;99.90;;;;;;5075902;28;20207;-71
2021/01/09 08:25:14;;;;;;;77.40;37.43;;;1.70;99.90;;;;;;5075234;28;20763;-73
2021/01/09 08:27:46;;;;;;;79.10;37.17;;;1.70;99.90;;;;;;5076349;28;20643;-77
2021/01/09 08:30:15;;;;;;;80.00;38.53;;;1.70;99.90;;;;;;5076853;28;20704;-76
2021/01/09 08:32:42;;;;;;;72.60;37.00;;;1.70;99.90;;;;;;5075858;28;20225;-74
2021/01/09 08:35:11;;;;;;;76.23;37.40;;;1.70;99.90;;;;;;5075909;28;20247;-74
2021/01/09 08:37:38;;;;;;;75.43;36.93;;;1.70;99.90;;;;;;5074737;28;20236;-75
2021/01/09 08:40:12;;;;;;;81.73;39.27;;;1.70;99.90;;;;;;5076083;28;20258;-73
2021/01/09 08:43:02;;;;;;;77.27;36.53;;;1.70;99.90;;;;;;5075422;28;20208;-73
2021/01/09 08:45:48;;;;;;;78.93;37.07;;;1.60;99.90;;;;;;5073956;28;20198;-73
2021/01/09 08:48:23;;;;;;;69.83;35.93;;;1.70;99.90;;;;;;5072802;28;20664;-74
2021/01/09 08:51:01;;;;;;;76.53;37.00;;;1.70;99.90;;;;;;5072333;28;20260;-76
2021/01/09 08:53:31;;;;;;;71.90;35.17;;;1.70;99.90;;;;;;5075740;28;20201;-73
2021/01/09 08:56:02;;;;;;;79.33;36.73;;;1.70;99.90;;;;;;5077693;28;20292;-75
2021/01/09 08:58:31;;;;;;;73.77;36.30;;;1.70;99.90;;;;;;5061778;28;20235;-73
2021/01/09 09:00:58;;;;;;;74.77;37.17;;;1.70;99.90;;;;;;5072761;28;20201;-74
2021/01/09 09:03:25;;;;;;;77.27;36.47;;;1.70;99.90;;;;;;5074496;28;20219;-75
2021/01/09 09:05:52;;;;;;;70.63;34.33;;;1.70;99.90;;;;;;5073752;28;20225;-75
2021/01/09 09:08:19;;;;;;;75.63;36.53;;;1.70;99.90;;;;;;5073406;28;20777;-72
2021/01/09 09:10:47;;;;;;;71.73;36.43;;;1.70;99.90;;;;;;5074801;28;20215;-73
2021/01/09 09:13:22;;;;;;;75.87;36.87;;;1.70;99.90;;;;;;5074668;28;20229;-73
2021/01/09 09:15:51;;;;;;;70.00;34.80;;;1.70;99.90;;;;;;5074713;28;20221;-73
2021/01/09 09:18:19;;;;;;;76.77;35.60;;;1.70;99.90;;;;;;5075263;28;20583;-73
2021/01/09 09:20:49;;;;;;;73.17;35.50;;;1.80;99.90;;;;;;5074841;28;20824;-73
2021/01/09 09:23:24;;;;;;;73.00;34.70;;;1.70;99.90;;;;;;5077010;28;20635;-73
2021/01/09 09:26:08;;;;;;;67.87;35.43;;;1.70;99.90;;;;;;5074504;28;20305;-74
2021/01/09 09:28:45;;;;;;;71.23;35.03;;;1.70;99.90;;;;;;5082283;28;20313;-74
2021/01/09 09:31:27;;;;;;;69.73;33.13;;;1.70;99.90;;;;;;5073644;28;20675;-73
2021/01/09 09:34:09;;;;;;;71.77;35.77;;;1.60;99.90;;;;;;5072586;28;20248;-73
2021/01/09 09:36:37;;;;;;;72.53;32.80;;;1.60;99.90;;;;;;5071030;28;20197;-72
2021/01/09 09:39:12;;;;;;;76.47;36.30;;;1.60;99.90;;;;;;5071176;28;20217;-72
2021/01/09 09:41:52;;;;;;;84.70;36.83;;;1.60;99.90;;;;;;5072624;28;20206;-72
2021/01/09 09:44:20;;;;;;;71.80;34.77;;;1.60;99.90;;;;;;5072265;28;20211;-73
2021/01/09 09:46:49;;;;;;;81.30;35.83;;;1.60;99.90;;;;;;5070266;28;20229;-73
2021/01/09 09:49:16;;;;;;;74.03;34.33;;;1.60;99.90;;;;;;5072910;28;20638;-73
2021/01/09 09:51:42;;;;;;;78.50;35.73;;;1.60;99.90;;;;;;5073052;28;20215;-75
2021/01/09 09:54:09;;;;;;;80.27;36.90;;;1.60;99.90;;;;;;5070507;28;20201;-74
2021/01/09 09:56:37;;;;;;;77.17;33.13;;;1.60;99.90;;;;;;5071583;28;20224;-73
2021/01/09 09:59:05;;;;;;;73.97;35.13;;;1.60;99.90;;;;;;5072999;28;20693;-73
2021/01/09 10:01:32;;;;;;;72.77;32.80;;;1.80;99.90;;;;;;5070706;28;20597;-73
2021/01/09 10:04:00;;;;;;;72.70;34.57;;;1.70;99.90;;;;;;5070031;28;20208;-75
2021/01/09 10:06:38;;;;;;;79.83;35.13;;;1.70;99.90;;;;;;5069963;28;20232;-75
2021/01/09 10:09:12;;;;;;;77.03;34.70;;;1.70;99.90;;;;;;5065364;28;20630;-75
2021/01/09 10:11:45;;;;;;;80.13;35.03;;;1.70;99.90;;;;;;5074395;28;20224;-74
2021/01/09 10:14:11;;;;;;;70.50;33.53;;;1.70;99.90;;;;;;5069845;28;20552;-74
2021/01/09 10:16:38;;;;;;;72.13;35.50;;;1.70;99.90;;;;;;5069919;28;20233;-74
2021/01/09 10:19:06;;;;;;;73.73;31.77;;;1.80;99.90;;;;;;5070280;28;20232;-75
2021/01/09 10:21:33;;;;;;;71.73;34.07;;;1.80;99.90;;;;;;5072132;28;20643;-75
2021/01/09 10:24:00;;;;;;;77.03;33.00;;;1.80;99.90;;;;;;5071334;28;20205;-74
2021/01/09 10:26:27;;;;;;;72.07;33.00;;;1.80;99.90;;;;;;5069685;28;20658;-75
2021/01/09 10:28:55;;;;;;;71.10;32.57;;;1.90;99.90;;;;;;5069523;28;20239;-72
2021/01/09 10:31:32;;;;;;;71.57;31.50;;;1.80;99.90;;;;;;5072526;28;20226;-74
2021/01/09 10:33:59;;;;;;;72.50;31.57;;;2.00;99.90;;;;;;5071790;28;20735;-75
2021/01/09 10:36:30;;;;;;;64.57;30.97;;;1.90;99.90;;;;;;5070924;28;20689;-74
2021/01/09 10:38:57;;;;;;;70.70;30.80;;;1.90;99.90;;;;;;5069077;28;20292;-74
2021/01/09 10:41:25;;;;;;;65.43;29.90;;;2.00;99.90;;;;;;5067954;28;20217;-75
2021/01/09 10:43:52;;;;;;;59.17;29.13;;;2.00;99.90;;;;;;5068833;28;20204;-74
2021/01/09 10:46:20;;;;;;;68.33;30.40;;;2.10;99.90;;;;;;5072660;28;20614;-75
2021/01/09 10:48:46;;;;;;;62.40;30.33;;;2.10;99.90;;;;;;5063300;28;20216;-75
2021/01/09 10:51:14;;;;;;;67.17;30.13;;;2.10;99.90;;;;;;5068969;28;20591;-74
2021/01/09 10:53:42;;;;;;;58.83;27.70;;;2.20;99.90;;;;;;5065105;28;20209;-75
2021/01/09 10:56:08;;;;;;;61.63;28.60;;;2.20;99.90;;;;;;5070747;28;20201;-74
2021/01/09 10:58:35;;;;;;;60.17;27.33;;;2.20;99.90;;;;;;5070503;28;20318;-74
2021/01/09 11:01:01;;;;;;;59.00;27.63;;;2.10;99.90;;;;;;5068603;28;20284;-73
2021/01/09 11:03:28;;;;;;;58.33;28.30;;;2.20;99.90;;;;;;5071982;28;20642;-74
2021/01/09 11:05:54;;;;;;;60.10;28.50;;;2.20;99.90;;;;;;5073912;28;20322;-74
2021/01/09 11:08:21;;;;;;;60.40;27.37;;;2.20;99.90;;;;;;5073908;28;20230;-75
2021/01/09 11:10:48;;;;;;;65.27;29.07;;;2.20;99.90;;;;;;5074420;28;20268;-74
2021/01/09 11:13:15;;;;;;;63.20;28.10;;;2.20;99.90;;;;;;5075343;28;20225;-74
2021/01/09 11:15:44;;;;;;;66.30;28.87;;;2.20;99.90;;;;;;5069791;28;20578;-73
2021/01/09 11:18:11;;;;;;;72.80;30.67;;;2.20;99.90;;;;;;5075643;28;20272;-74
2021/01/09 11:20:44;;;;;;;71.57;31.67;;;2.20;99.90;;;;;;5076584;28;20201;-75
2021/01/09 11:23:10;;;;;;;65.57;29.60;;;2.10;99.90;;;;;;5074229;28;20275;-75
2021/01/09 11:25:42;;;;;;;65.40;28.73;;;2.10;99.90;;;;;;5075754;28;20600;-75
2021/01/09 11:28:09;;;;;;;61.53;29.03;;;2.10;99.90;;;;;;5076716;28;20212;-74
2021/01/09 11:30:36;;;;;;;68.90;29.43;;;2.00;99.90;;;;;;5076007;28;20588;-74
2021/01/09 11:33:02;;;;;;;68.07;28.77;;;2.10;99.90;;;;;;5074395;28;20288;-73
2021/01/09 11:35:29;;;;;;;65.70;28.00;;;2.00;99.90;;;;;;5072210;28;20201;-76
2021/01/09 11:37:57;;;;;;;65.53;28.80;;;2.00;99.90;;;;;;5073892;28;20697;-75
2021/01/09 11:40:23;;;;;;;65.50;28.50;;;2.00;99.90;;;;;;5073659;28;20221;-72
2021/01/09 11:42:49;;;;;;;71.83;29.37;;;2.00;99.90;;;;;;5074081;28;20296;-73
2021/01/09 11:45:17;;;;;;;74.27;31.40;;;2.00;99.90;;;;;;5071800;28;20209;-72
2021/01/09 11:47:43;;;;;;;63.47;28.83;;;1.90;99.90;;;;;;5069272;28;20708;-73
2021/01/09 11:50:11;;;;;;;70.87;28.60;;;1.90;99.90;;;;;;5070188;28;20297;-74
2021/01/09 11:52:38;;;;;;;69.97;28.93;;;1.90;99.90;;;;;;5073568;28;20201;-71
2021/01/09 11:55:06;;;;;;;67.67;30.20;;;2.00;99.90;;;;;;5074376;28;20216;-72
2021/01/09 11:57:32;;;;;;;68.33;28.73;;;1.90;99.90;;;;;;5065653;28;20284;-72
2021/01/09 11:59:59;;;;;;;65.87;28.00;;;1.90;99.90;;;;;;5074580;28;20296;-72
2021/01/09 12:02:26;;;;;;;71.87;29.27;;;1.90;99.90;;;;;;5069793;28;20231;-71
2021/01/09 12:04:53;;;;;;;71.37;28.60;;;1.90;99.90;;;;;;5071643;28;20208;-72
2021/01/09 12:07:19;;;;;;;65.17;29.30;;;1.90;99.90;;;;;;5074977;28;20233;-74
2021/01/09 12:09:45;;;;;;;62.40;28.87;;;1.90;99.90;;;;;;5074246;28;20206;-72
2021/01/09 12:12:12;;;;;;;70.77;30.33;;;1.90;99.90;;;;;;5071238;28;20221;-73
2021/01/09 12:14:38;;;;;;;78.00;31.13;;;2.00;99.90;;;;;;5073966;28;20292;-73
2021/01/09 12:17:04;;;;;;;70.00;28.27;;;2.00;99.90;;;;;;5071780;28;20698;-74
2021/01/09 12:19:31;;;;;;;70.10;29.87;;;2.00;99.90;;;;;;5074011;28;20291;-73
2021/01/09 12:21:58;;;;;;;69.17;27.77;;;1.90;99.90;;;;;;5072038;28;20296;-74
2021/01/09 12:24:25;;;;;;;62.40;28.60;;;1.90;99.90;;;;;;5076871;28;20768;-73
2021/01/09 12:26:52;;;;;;;65.77;27.50;;;1.90;99.90;;;;;;5071866;28;20222;-74
2021/01/09 12:29:19;;;;;;;60.90;29.37;;;1.90;99.90;;;;;;5075198;28;20306;-74
2021/01/09 12:31:45;;;;;;;65.17;28.60;;;1.90;99.90;;;;;;5074625;28;20609;-74
2021/01/09 12:34:12;;;;;;;68.27;28.33;;;1.90;99.90;;;;;;5072129;28;20208;-75
2021/01/09 12:36:40;;;;;;;63.93;27.17;;;1.90;99.90;;;;;;5075310;28;20596;-74
2021/01/09 12:39:07;;;;;;;61.20;26.23;;;2.00;99.90;;;;;;5075574;28;20201;-73
2021/01/09 12:41:35;;;;;;;59.13;27.37;;;2.00;99.90;;;;;;5074992;28;20205;-76
2021/01/09 12:44:02;;;;;;;59.60;27.40;;;1.90;99.90;;;;;;5086825;28;20208;-73